Aviation Digital Data Service (ADDS)

Output produced by METARs form (1821 UTC 21 October 2014)
found at http://aviationweather.gov/adds/metars/
 
KINT 211733Z 2118/2218 28010G16KT P6SM SCT050 
     TEMPO 2119/2122 BKN040 
     FM212200 32012G22KT P6SM FEW040 
     FM221600 33012G22KT P6SM FEW030